sensor_id;sensor_type;location;lat;lon;timestamp;pressure;altitude;pressure_sealevel;temperature;humidity
64827;BME280;51265;53.972;12.286;2022-11-11T00:02:14;101440.41;;;11.72;100.00
64827;BME280;51265;53.972;12.286;2022-11-11T00:04:59;101443.19;;;11.72;100.00
64827;BME280;51265;53.972;12.286;2022-11-11T00:07:43;101442.41;;;11.61;100.00
64827;BME280;51265;53.972;12.286;2022-11-11T00:10:29;101451.50;;;11.67;100.00
64827;BME280;51265;53.972;12.286;2022-11-11T00:13:13;101446.22;;;11.70;100.00
64827;BME280;51265;53.972;12.286;2022-11-11T00:18:59;101447.06;;;11.66;100.00
64827;BME280;51265;53.972;12.286;2022-11-11T00:22:03;101437.97;;;11.65;100.00
64827;BME280;51265;53.972;12.286;2022-11-11T00:25:08;101436.03;;;11.66;100.00
64827;BME280;51265;53.972;12.286;2022-11-11T00:27:53;101441.53;;;11.66;100.00
64827;BME280;51265;53.972;12.286;2022-11-11T00:30:38;101453.19;;;11.58;100.00
64827;BME280;51265;53.972;12.286;2022-11-11T00:33:23;101445.50;;;11.55;100.00
64827;BME280;51265;53.972;12.286;2022-11-11T00:36:07;101460.38;;;11.59;100.00
64827;BME280;51265;53.972;12.286;2022-11-11T00:38:52;101457.56;;;11.64;100.00
64827;BME280;51265;53.972;12.286;2022-11-11T00:41:39;101449.91;;;11.56;100.00
64827;BME280;51265;53.972;12.286;2022-11-11T00:44:24;101454.91;;;11.54;100.00
64827;BME280;51265;53.972;12.286;2022-11-11T00:47:09;101458.13;;;11.61;100.00
64827;BME280;51265;53.972;12.286;2022-11-11T00:50:20;101457.06;;;11.57;100.00
64827;BME280;51265;53.972;12.286;2022-11-11T00:53:30;101469.50;;;11.54;100.00
64827;BME280;51265;53.972;12.286;2022-11-11T00:56:17;101458.22;;;11.51;100.00
64827;BME280;51265;53.972;12.286;2022-11-11T00:59:03;101470.38;;;11.50;100.00
64827;BME280;51265;53.972;12.286;2022-11-11T01:01:48;101488.59;;;11.45;100.00
64827;BME280;51265;53.972;12.286;2022-11-11T01:04:33;101489.19;;;11.37;100.00
64827;BME280;51265;53.972;12.286;2022-11-11T01:07:17;101495.78;;;11.36;100.00
64827;BME280;51265;53.972;12.286;2022-11-11T01:10:02;101511.00;;;11.29;100.00
64827;BME280;51265;53.972;12.286;2022-11-11T01:12:47;101508.50;;;11.32;100.00
64827;BME280;51265;53.972;12.286;2022-11-11T01:15:32;101497.75;;;11.31;100.00
64827;BME280;51265;53.972;12.286;2022-11-11T01:18:23;101479.81;;;11.33;100.00
64827;BME280;51265;53.972;12.286;2022-11-11T01:21:14;101507.97;;;11.30;100.00
64827;BME280;51265;53.972;12.286;2022-11-11T01:23:59;101496.94;;;11.30;100.00
64827;BME280;51265;53.972;12.286;2022-11-11T01:26:44;101489.78;;;11.29;100.00
64827;BME280;51265;53.972;12.286;2022-11-11T01:29:29;101488.09;;;11.28;100.00
64827;BME280;51265;53.972;12.286;2022-11-11T01:32:14;101489.25;;;11.17;100.00
64827;BME280;51265;53.972;12.286;2022-11-11T01:34:58;101510.75;;;11.20;100.00
64827;BME280;51265;53.972;12.286;2022-11-11T01:37:44;101505.22;;;11.20;100.00
64827;BME280;51265;53.972;12.286;2022-11-11T01:40:29;101485.69;;;11.16;100.00
64827;BME280;51265;53.972;12.286;2022-11-11T01:43:23;101491.44;;;11.20;100.00
64827;BME280;51265;53.972;12.286;2022-11-11T01:46:18;101495.88;;;11.16;100.00
64827;BME280;51265;53.972;12.286;2022-11-11T01:49:22;101495.34;;;11.14;100.00
64827;BME280;51265;53.972;12.286;2022-11-11T01:52:30;101472.72;;;11.12;100.00
64827;BME280;51265;53.972;12.286;2022-11-11T01:55:18;101484.84;;;11.16;100.00
64827;BME280;51265;53.972;12.286;2022-11-11T01:58:07;101470.53;;;11.14;100.00
64827;BME280;51265;53.972;12.286;2022-11-11T02:00:52;101462.78;;;11.16;100.00
64827;BME280;51265;53.972;12.286;2022-11-11T02:03:40;101462.28;;;11.09;100.00
64827;BME280;51265;53.972;12.286;2022-11-11T02:06:26;101458.97;;;11.07;100.00
64827;BME280;51265;53.972;12.286;2022-11-11T02:09:11;101454.28;;;11.07;100.00
64827;BME280;51265;53.972;12.286;2022-11-11T02:11:58;101464.47;;;11.07;100.00
64827;BME280;51265;53.972;12.286;2022-11-11T02:15:03;101458.47;;;11.00;100.00
64827;BME280;51265;53.972;12.286;2022-11-11T02:17:50;101465.63;;;11.01;100.00
64827;BME280;51265;53.972;12.286;2022-11-11T02:20:37;101464.53;;;10.96;100.00
64827;BME280;51265;53.972;12.286;2022-11-11T02:26:46;101459.84;;;10.97;100.00
64827;BME280;51265;53.972;12.286;2022-11-11T02:29:32;101448.81;;;10.97;100.00
64827;BME280;51265;53.972;12.286;2022-11-11T02:32:17;101458.47;;;10.94;100.00
64827;BME280;51265;53.972;12.286;2022-11-11T02:35:10;101456.22;;;11.02;100.00
64827;BME280;51265;53.972;12.286;2022-11-11T02:37:55;101450.47;;;10.98;100.00
64827;BME280;51265;53.972;12.286;2022-11-11T02:40:50;101451.88;;;10.95;100.00
64827;BME280;51265;53.972;12.286;2022-11-11T02:43:55;101451.84;;;10.90;100.00
64827;BME280;51265;53.972;12.286;2022-11-11T02:46:39;101455.72;;;10.89;100.00
64827;BME280;51265;53.972;12.286;2022-11-11T02:49:24;101460.72;;;10.87;100.00
64827;BME280;51265;53.972;12.286;2022-11-11T02:52:08;101476.09;;;10.93;100.00
64827;BME280;51265;53.972;12.286;2022-11-11T02:54:53;101477.25;;;10.87;100.00
64827;BME280;51265;53.972;12.286;2022-11-11T02:57:38;101471.47;;;10.84;100.00
64827;BME280;51265;53.972;12.286;2022-11-11T03:00:23;101478.06;;;10.78;100.00
64827;BME280;51265;53.972;12.286;2022-11-11T03:03:08;101482.22;;;10.75;100.00
64827;BME280;51265;53.972;12.286;2022-11-11T03:05:53;101477.53;;;10.76;100.00
64827;BME280;51265;53.972;12.286;2022-11-11T03:08:37;101494.34;;;10.79;100.00
64827;BME280;51265;53.972;12.286;2022-11-11T03:11:22;101487.75;;;10.75;100.00
64827;BME280;51265;53.972;12.286;2022-11-11T03:14:13;101485.81;;;10.76;100.00
64827;BME280;51265;53.972;12.286;2022-11-11T03:16:57;101497.09;;;10.69;100.00
64827;BME280;51265;53.972;12.286;2022-11-11T03:20:01;101504.56;;;10.68;100.00
64827;BME280;51265;53.972;12.286;2022-11-11T03:23:12;101502.09;;;10.67;100.00
64827;BME280;51265;53.972;12.286;2022-11-11T03:25:57;101517.50;;;10.68;100.00
64827;BME280;51265;53.972;12.286;2022-11-11T03:28:42;101514.72;;;10.73;100.00
64827;BME280;51265;53.972;12.286;2022-11-11T03:31:27;101517.50;;;10.68;100.00
64827;BME280;51265;53.972;12.286;2022-11-11T03:34:11;101526.31;;;10.70;100.00
64827;BME280;51265;53.972;12.286;2022-11-11T03:37:07;101522.19;;;10.67;100.00
64827;BME280;51265;53.972;12.286;2022-11-11T03:40:11;101523.00;;;10.68;100.00
64827;BME280;51265;53.972;12.286;2022-11-11T03:42:56;101521.38;;;10.67;100.00
64827;BME280;51265;53.972;12.286;2022-11-11T03:45:42;101504.28;;;10.65;100.00
64827;BME280;51265;53.972;12.286;2022-11-11T03:48:30;101512.53;;;10.65;100.00
64827;BME280;51265;53.972;12.286;2022-11-11T03:51:14;101518.03;;;10.65;100.00
64827;BME280;51265;53.972;12.286;2022-11-11T03:53:59;101515.59;;;10.63;100.00
64827;BME280;51265;53.972;12.286;2022-11-11T03:56:44;101521.91;;;10.64;100.00
64827;BME280;51265;53.972;12.286;2022-11-11T03:59:28;101504.28;;;10.60;100.00
64827;BME280;51265;53.972;12.286;2022-11-11T04:02:13;101519.72;;;10.56;100.00
64827;BME280;51265;53.972;12.286;2022-11-11T04:05:17;101537.88;;;10.57;100.00
64827;BME280;51265;53.972;12.286;2022-11-11T04:08:21;101534.03;;;10.53;100.00
64827;BME280;51265;53.972;12.286;2022-11-11T04:14:12;101550.59;;;10.58;100.00
64827;BME280;51265;53.972;12.286;2022-11-11T04:17:16;101547.25;;;10.61;100.00
64827;BME280;51265;53.972;12.286;2022-11-11T04:20:02;101553.59;;;10.56;100.00
64827;BME280;51265;53.972;12.286;2022-11-11T04:23:05;101559.38;;;10.60;100.00
64827;BME280;51265;53.972;12.286;2022-11-11T04:25:50;101551.13;;;10.55;100.00
64827;BME280;51265;53.972;12.286;2022-11-11T04:28:36;101559.38;;;10.55;100.00
64827;BME280;51265;53.972;12.286;2022-11-11T04:31:40;101558.28;;;10.56;100.00
64827;BME280;51265;53.972;12.286;2022-11-11T04:34:45;101568.22;;;10.62;100.00
64827;BME280;51265;53.972;12.286;2022-11-11T04:37:33;101562.13;;;10.60;100.00
64827;BME280;51265;53.972;12.286;2022-11-11T04:40:17;101566.84;;;10.54;100.00
64827;BME280;51265;53.972;12.286;2022-11-11T04:43:22;101572.34;;;10.54;100.00
64827;BME280;51265;53.972;12.286;2022-11-11T04:46:07;101569.84;;;10.53;100.00
64827;BME280;51265;53.972;12.286;2022-11-11T04:48:51;101574.25;;;10.64;100.00
64827;BME280;51265;53.972;12.286;2022-11-11T04:51:36;101575.63;;;10.56;100.00
64827;BME280;51265;53.972;12.286;2022-11-11T04:54:39;101581.13;;;10.56;100.00
64827;BME280;51265;53.972;12.286;2022-11-11T04:57:46;101577.00;;;10.64;100.00
64827;BME280;51265;53.972;12.286;2022-11-11T05:00:31;101570.97;;;10.62;100.00
64827;BME280;51265;53.972;12.286;2022-11-11T05:03:17;101573.72;;;10.62;100.00
64827;BME280;51265;53.972;12.286;2022-11-11T05:06:03;101568.22;;;10.62;100.00
64827;BME280;51265;53.972;12.286;2022-11-11T05:09:10;101570.41;;;10.60;100.00
64827;BME280;51265;53.972;12.286;2022-11-11T05:11:55;101575.91;;;10.60;100.00
64827;BME280;51265;53.972;12.286;2022-11-11T05:14:40;101583.06;;;10.61;100.00
64827;BME280;51265;53.972;12.286;2022-11-11T05:17:44;101585.81;;;10.56;100.00
64827;BME280;51265;53.972;12.286;2022-11-11T05:20:48;101581.44;;;10.50;100.00
64827;BME280;51265;53.972;12.286;2022-11-11T05:23:52;101588.03;;;10.48;100.00
64827;BME280;51265;53.972;12.286;2022-11-11T05:26:56;101591.88;;;10.53;100.00
64827;BME280;51265;53.972;12.286;2022-11-11T05:29:40;101593.56;;;10.54;100.00
64827;BME280;51265;53.972;12.286;2022-11-11T05:32:25;101578.38;;;10.51;100.00
64827;BME280;51265;53.972;12.286;2022-11-11T05:35:11;101581.97;;;10.52;100.00
64827;BME280;51265;53.972;12.286;2022-11-11T05:38:01;101577.28;;;10.57;100.00
64827;BME280;51265;53.972;12.286;2022-11-11T05:41:05;101579.50;;;10.55;100.00
64827;BME280;51265;53.972;12.286;2022-11-11T05:43:49;101575.63;;;10.46;100.00
64827;BME280;51265;53.972;12.286;2022-11-11T05:46:34;101574.78;;;10.40;100.00
64827;BME280;51265;53.972;12.286;2022-11-11T05:49:19;101580.88;;;10.42;100.00
64827;BME280;51265;53.972;12.286;2022-11-11T05:52:06;101581.44;;;10.50;100.00
64827;BME280;51265;53.972;12.286;2022-11-11T05:54:50;101581.97;;;10.46;100.00
64827;BME280;51265;53.972;12.286;2022-11-11T05:57:35;101577.53;;;10.40;100.00
64827;BME280;51265;53.972;12.286;2022-11-11T06:00:20;101589.41;;;10.46;100.00
64827;BME280;51265;53.972;12.286;2022-11-11T06:03:08;101597.09;;;10.49;100.00
64827;BME280;51265;53.972;12.286;2022-11-11T06:05:54;101612.81;;;10.48;100.00
64827;BME280;51265;53.972;12.286;2022-11-11T06:08:40;101602.91;;;10.42;100.00
64827;BME280;51265;53.972;12.286;2022-11-11T06:11:25;101613.91;;;10.53;100.00
64827;BME280;51265;53.972;12.286;2022-11-11T06:14:14;101620.53;;;10.52;100.00
64827;BME280;51265;53.972;12.286;2022-11-11T06:16:59;101626.56;;;10.43;100.00
64827;BME280;51265;53.972;12.286;2022-11-11T06:19:44;101639.00;;;10.51;100.00
64827;BME280;51265;53.972;12.286;2022-11-11T06:22:30;101640.34;;;10.48;100.00
64827;BME280;51265;53.972;12.286;2022-11-11T06:25:36;101641.47;;;10.47;100.00
64827;BME280;51265;53.972;12.286;2022-11-11T06:28:54;101646.97;;;10.47;100.00
64827;BME280;51265;53.972;12.286;2022-11-11T06:31:40;101644.50;;;10.51;100.00
64827;BME280;51265;53.972;12.286;2022-11-11T06:34:25;101648.06;;;10.46;100.00
64827;BME280;51265;53.972;12.286;2022-11-11T06:37:11;101654.69;;;10.51;100.00
64827;BME280;51265;53.972;12.286;2022-11-11T06:39:56;101659.09;;;10.46;100.00
64827;BME280;51265;53.972;12.286;2022-11-11T06:42:41;101662.94;;;10.45;100.00
64827;BME280;51265;53.972;12.286;2022-11-11T06:45:28;101678.91;;;10.48;100.00
64827;BME280;51265;53.972;12.286;2022-11-11T06:48:14;101684.97;;;10.45;100.00
64827;BME280;51265;53.972;12.286;2022-11-11T06:51:04;101686.06;;;10.44;100.00
64827;BME280;51265;53.972;12.286;2022-11-11T06:53:50;101675.56;;;10.36;100.00
64827;BME280;51265;53.972;12.286;2022-11-11T06:56:35;101680.00;;;10.42;100.00
64827;BME280;51265;53.972;12.286;2022-11-11T06:59:20;101675.03;;;10.39;100.00
64827;BME280;51265;53.972;12.286;2022-11-11T07:02:05;101675.59;;;10.41;100.00
64827;BME280;51265;53.972;12.286;2022-11-11T07:04:50;101673.16;;;10.45;100.00
64827;BME280;51265;53.972;12.286;2022-11-11T07:07:35;101683.31;;;10.44;100.00
64827;BME280;51265;53.972;12.286;2022-11-11T07:10:21;101686.34;;;10.48;100.00
64827;BME280;51265;53.972;12.286;2022-11-11T07:13:06;101684.97;;;10.45;100.00
64827;BME280;51265;53.972;12.286;2022-11-11T07:15:52;101697.13;;;10.50;100.00
64827;BME280;51265;53.972;12.286;2022-11-11T07:18:37;101691.84;;;10.48;100.00
64827;BME280;51265;53.972;12.286;2022-11-11T07:21:23;101695.44;;;10.48;100.00
64827;BME280;51265;53.972;12.286;2022-11-11T07:24:08;101696.53;;;10.42;100.00
64827;BME280;51265;53.972;12.286;2022-11-11T07:26:53;101700.41;;;10.46;100.00
64827;BME280;51265;53.972;12.286;2022-11-11T07:29:39;101695.97;;;10.35;100.00
64827;BME280;51265;53.972;12.286;2022-11-11T07:32:24;101706.44;;;10.38;100.00
64827;BME280;51265;53.972;12.286;2022-11-11T07:35:10;101702.56;;;10.39;100.00
64827;BME280;51265;53.972;12.286;2022-11-11T07:37:55;101704.50;;;10.39;100.00
64827;BME280;51265;53.972;12.286;2022-11-11T07:40:40;101717.47;;;10.43;100.00
64827;BME280;51265;53.972;12.286;2022-11-11T07:43:26;101715.81;;;10.42;100.00
64827;BME280;51265;53.972;12.286;2022-11-11T07:46:11;101708.09;;;10.39;100.00
64827;BME280;51265;53.972;12.286;2022-11-11T07:48:57;101725.72;;;10.43;100.00
64827;BME280;51265;53.972;12.286;2022-11-11T07:51:42;101722.97;;;10.38;100.00
64827;BME280;51265;53.972;12.286;2022-11-11T07:54:27;101735.91;;;10.43;100.00
64827;BME280;51265;53.972;12.286;2022-11-11T07:57:12;101728.22;;;10.45;100.00
64827;BME280;51265;53.972;12.286;2022-11-11T07:59:57;101731.75;;;10.40;100.00
64827;BME280;51265;53.972;12.286;2022-11-11T08:02:48;101724.59;;;10.39;100.00
64827;BME280;51265;53.972;12.286;2022-11-11T08:05:34;101743.63;;;10.41;100.00
64827;BME280;51265;53.972;12.286;2022-11-11T08:08:19;101737.28;;;10.40;100.00
64827;BME280;51265;53.972;12.286;2022-11-11T08:11:08;101738.94;;;10.41;100.00
64827;BME280;51265;53.972;12.286;2022-11-11T08:13:53;101742.25;;;10.38;100.00
64827;BME280;51265;53.972;12.286;2022-11-11T08:16:39;101740.31;;;10.34;100.00
64827;BME280;51265;53.972;12.286;2022-11-11T08:19:25;101750.22;;;10.40;100.00
64827;BME280;51265;53.972;12.286;2022-11-11T08:22:10;101748.28;;;10.40;100.00
64827;BME280;51265;53.972;12.286;2022-11-11T08:24:56;101757.72;;;10.50;100.00
64827;BME280;51265;53.972;12.286;2022-11-11T08:28:03;101762.94;;;10.51;100.00
64827;BME280;51265;53.972;12.286;2022-11-11T08:30:50;101762.63;;;10.42;100.00
64827;BME280;51265;53.972;12.286;2022-11-11T08:33:35;101772.56;;;10.48;100.00
64827;BME280;51265;53.972;12.286;2022-11-11T08:36:23;101779.22;;;10.63;100.00
64827;BME280;51265;53.972;12.286;2022-11-11T08:39:10;101776.47;;;10.63;100.00
64827;BME280;51265;53.972;12.286;2022-11-11T08:41:56;101772.63;;;10.69;100.00
64827;BME280;51265;53.972;12.286;2022-11-11T08:44:43;101772.34;;;10.65;100.00
64827;BME280;51265;53.972;12.286;2022-11-11T08:47:28;101768.50;;;10.66;100.00
64827;BME280;51265;53.972;12.286;2022-11-11T08:50:14;101769.31;;;10.67;100.00
64827;BME280;51265;53.972;12.286;2022-11-11T08:53:01;101766.56;;;10.62;100.00
64827;BME280;51265;53.972;12.286;2022-11-11T08:55:50;101780.88;;;10.69;100.00
64827;BME280;51265;53.972;12.286;2022-11-11T08:58:39;101774.84;;;10.77;100.00
64827;BME280;51265;53.972;12.286;2022-11-11T09:01:24;101774.25;;;10.65;100.00
64827;BME280;51265;53.972;12.286;2022-11-11T09:04:10;101779.78;;;10.70;100.00
64827;BME280;51265;53.972;12.286;2022-11-11T09:06:57;101778.41;;;10.72;100.00
64827;BME280;51265;53.972;12.286;2022-11-11T09:09:43;101793.03;;;10.73;100.00
64827;BME280;51265;53.972;12.286;2022-11-11T09:12:32;101784.22;;;10.71;100.00
64827;BME280;51265;53.972;12.286;2022-11-11T09:15:25;101807.38;;;10.75;100.00
64827;BME280;51265;53.972;12.286;2022-11-11T09:18:10;101807.91;;;10.77;100.00
64827;BME280;51265;53.972;12.286;2022-11-11T09:20:59;101821.69;;;10.77;100.00
64827;BME280;51265;53.972;12.286;2022-11-11T09:23:45;101815.66;;;10.85;100.00
64827;BME280;51265;53.972;12.286;2022-11-11T09:26:31;101818.41;;;10.90;100.00
64827;BME280;51265;53.972;12.286;2022-11-11T09:29:17;101821.22;;;10.95;100.00
64827;BME280;51265;53.972;12.286;2022-11-11T09:32:03;101807.97;;;10.97;100.00
64827;BME280;51265;53.972;12.286;2022-11-11T09:34:48;101814.59;;;11.07;100.00
64827;BME280;51265;53.972;12.286;2022-11-11T09:37:34;101808.25;;;11.01;100.00
64827;BME280;51265;53.972;12.286;2022-11-11T09:40:21;101810.72;;;11.03;100.00
64827;BME280;51265;53.972;12.286;2022-11-11T09:43:28;101824.53;;;11.13;100.00
64827;BME280;51265;53.972;12.286;2022-11-11T09:46:45;101825.66;;;11.17;100.00
64827;BME280;51265;53.972;12.286;2022-11-11T09:49:54;101825.66;;;11.22;100.00
64827;BME280;51265;53.972;12.286;2022-11-11T09:52:52;101828.13;;;11.23;100.00
64827;BME280;51265;53.972;12.286;2022-11-11T09:55:46;101815.16;;;11.24;100.00
64827;BME280;51265;53.972;12.286;2022-11-11T09:58:38;101826.50;;;11.43;100.00
64827;BME280;51265;53.972;12.286;2022-11-11T10:01:28;101826.22;;;11.39;100.00
64827;BME280;51265;53.972;12.286;2022-11-11T10:07:54;101816.28;;;11.28;100.00
64827;BME280;51265;53.972;12.286;2022-11-11T10:10:46;101821.78;;;11.23;100.00
64827;BME280;51265;53.972;12.286;2022-11-11T10:13:34;101829.53;;;11.31;100.00
64827;BME280;51265;53.972;12.286;2022-11-11T10:16:27;101827.59;;;11.37;100.00
64827;BME280;51265;53.972;12.286;2022-11-11T10:20:25;101836.69;;;11.32;100.00
64827;BME280;51265;53.972;12.286;2022-11-11T10:22:40;101830.34;;;11.16;100.00
64827;BME280;51265;53.972;12.286;2022-11-11T10:25:26;101841.91;;;11.18;100.00
64827;BME280;51265;53.972;12.286;2022-11-11T10:28:16;101850.19;;;11.13;100.00
64827;BME280;51265;53.972;12.286;2022-11-11T10:31:09;101858.16;;;11.15;100.00
64827;BME280;51265;53.972;12.286;2022-11-11T10:36:49;101858.16;;;11.15;100.00
64827;BME280;51265;53.972;12.286;2022-11-11T10:42:27;101874.72;;;11.20;100.00
64827;BME280;51265;53.972;12.286;2022-11-11T10:45:28;101876.09;;;11.12;100.00
64827;BME280;51265;53.972;12.286;2022-11-11T10:48:23;101873.88;;;11.04;100.00
64827;BME280;51265;53.972;12.286;2022-11-11T10:51:15;101879.69;;;11.08;100.00
64827;BME280;51265;53.972;12.286;2022-11-11T10:54:09;101877.47;;;11.00;100.00
64827;BME280;51265;53.972;12.286;2022-11-11T10:57:04;101879.13;;;11.11;100.00
64827;BME280;51265;53.972;12.286;2022-11-11T11:00:02;101888.50;;;11.20;100.00
64827;BME280;51265;53.972;12.286;2022-11-11T11:02:58;101886.31;;;11.22;100.00
64827;BME280;51265;53.972;12.286;2022-11-11T11:06:13;101895.19;;;11.34;100.00
64827;BME280;51265;53.972;12.286;2022-11-11T11:12:21;101874.75;;;11.25;100.00
64827;BME280;51265;53.972;12.286;2022-11-11T11:15:21;101874.47;;;11.21;100.00
64827;BME280;51265;53.972;12.286;2022-11-11T11:18:11;101876.34;;;11.06;100.00
64827;BME280;51265;53.972;12.286;2022-11-11T11:21:02;101881.88;;;11.16;100.00
64827;BME280;51265;53.972;12.286;2022-11-11T11:23:48;101886.31;;;11.22;100.00
64827;BME280;51265;53.972;12.286;2022-11-11T11:26:45;101884.91;;;11.14;100.00
64827;BME280;51265;53.972;12.286;2022-11-11T11:29:35;101882.97;;;11.00;100.00
64827;BME280;51265;53.972;12.286;2022-11-11T11:32:29;101898.41;;;11.06;100.00
64827;BME280;51265;53.972;12.286;2022-11-11T11:35:47;101901.16;;;11.06;100.00
64827;BME280;51265;53.972;12.286;2022-11-11T11:38:40;101895.34;;;10.97;100.00
64827;BME280;51265;53.972;12.286;2022-11-11T11:41:40;101902.22;;;10.94;100.00
64827;BME280;51265;53.972;12.286;2022-11-11T11:44:28;101907.22;;;11.03;100.00
64827;BME280;51265;53.972;12.286;2022-11-11T11:50:28;101908.59;;;11.00;100.00
64827;BME280;51265;53.972;12.286;2022-11-11T11:59:32;101909.66;;;10.94;100.00
64827;BME280;51265;53.972;12.286;2022-11-11T12:05:50;101909.94;;;10.92;100.00
64827;BME280;51265;53.972;12.286;2022-11-11T12:11:41;101917.63;;;10.90;100.00
64827;BME280;51265;53.972;12.286;2022-11-11T12:20:47;101932.00;;;10.92;100.00
64827;BME280;51265;53.972;12.286;2022-11-11T12:26:43;101924.25;;;10.84;100.00
64827;BME280;51265;53.972;12.286;2022-11-11T12:32:37;101921.22;;;10.86;100.00
64827;BME280;51265;53.972;12.286;2022-11-11T12:38:48;101938.03;;;10.89;100.00
64827;BME280;51265;53.972;12.286;2022-11-11T12:41:56;101932.81;;;10.93;100.00
64827;BME280;51265;53.972;12.286;2022-11-11T12:44:56;101936.41;;;10.93;100.00
64827;BME280;51265;53.972;12.286;2022-11-11T12:54:21;101938.56;;;10.86;100.00
64827;BME280;51265;53.972;12.286;2022-11-11T13:00:28;101955.09;;;10.86;100.00
64827;BME280;51265;53.972;12.286;2022-11-11T13:03:32;101949.56;;;10.81;100.00
64827;BME280;51265;53.972;12.286;2022-11-11T13:09:44;101950.69;;;10.85;100.00
64827;BME280;51265;53.972;12.286;2022-11-11T13:15:30;101947.41;;;10.88;100.00
64827;BME280;51265;53.972;12.286;2022-11-11T13:18:19;101947.41;;;10.88;100.00
64827;BME280;51265;53.972;12.286;2022-11-11T13:21:13;101941.31;;;10.81;100.00
64827;BME280;51265;53.972;12.286;2022-11-11T13:23:59;101960.63;;;10.86;100.00
64827;BME280;51265;53.972;12.286;2022-11-11T13:27:00;101956.78;;;10.87;100.00
64827;BME280;51265;53.972;12.286;2022-11-11T13:32:45;101962.22;;;10.77;100.00
64827;BME280;51265;53.972;12.286;2022-11-11T13:41:22;101966.63;;;10.73;100.00
64827;BME280;51265;53.972;12.286;2022-11-11T13:44:08;101965.50;;;10.69;100.00
64827;BME280;51265;53.972;12.286;2022-11-11T13:47:04;101961.91;;;10.68;100.00
64827;BME280;51265;53.972;12.286;2022-11-11T13:50:25;101963.84;;;10.68;100.00
64827;BME280;51265;53.972;12.286;2022-11-11T13:53:36;101973.50;;;10.70;100.00
64827;BME280;51265;53.972;12.286;2022-11-11T13:56:37;101966.09;;;10.76;100.00
64827;BME280;51265;53.972;12.286;2022-11-11T13:59:27;101968.81;;;10.71;100.00
64827;BME280;51265;53.972;12.286;2022-11-11T14:07:52;101973.19;;;10.62;100.00
64827;BME280;51265;53.972;12.286;2022-11-11T14:22:30;101979.78;;;10.61;100.00
64827;BME280;51265;53.972;12.286;2022-11-11T14:25:24;101969.31;;;10.58;100.00
64827;BME280;51265;53.972;12.286;2022-11-11T14:28:26;101970.13;;;10.58;100.00
64827;BME280;51265;53.972;12.286;2022-11-11T14:34:13;101989.13;;;10.60;100.00
64827;BME280;51265;53.972;12.286;2022-11-11T14:37:21;101977.06;;;10.66;100.00
64827;BME280;51265;53.972;12.286;2022-11-11T14:40:11;101982.03;;;10.69;100.00
64827;BME280;51265;53.972;12.286;2022-11-11T14:42:58;101985.38;;;10.71;100.00
64827;BME280;51265;53.972;12.286;2022-11-11T14:51:40;101988.44;;;10.37;100.00
64827;BME280;51265;53.972;12.286;2022-11-11T14:57:56;101997.84;;;10.41;100.00
64827;BME280;51265;53.972;12.286;2022-11-11T15:00:59;101986.72;;;10.31;100.00
64827;BME280;51265;53.972;12.286;2022-11-11T15:03:48;101984.56;;;10.33;100.00
64827;BME280;51265;53.972;12.286;2022-11-11T15:12:56;101974.78;;;10.20;100.00
64827;BME280;51265;53.972;12.286;2022-11-11T15:34:24;101990.78;;;9.91;100.00
64827;BME280;51265;53.972;12.286;2022-11-11T15:37:17;101983.56;;;9.85;100.00
64827;BME280;51265;53.972;12.286;2022-11-11T15:40:04;101993.69;;;9.80;100.00
64827;BME280;51265;53.972;12.286;2022-11-11T15:42:50;101994.47;;;9.75;100.00
64827;BME280;51265;53.972;12.286;2022-11-11T15:45:35;102001.16;;;9.84;100.00
64827;BME280;51265;53.972;12.286;2022-11-11T15:48:44;101993.97;;;9.78;100.00
64827;BME280;51265;53.972;12.286;2022-11-11T15:51:33;101996.13;;;9.76;100.00
64827;BME280;51265;53.972;12.286;2022-11-11T15:54:19;102001.63;;;9.76;100.00
64827;BME280;51265;53.972;12.286;2022-11-11T15:57:28;102001.63;;;9.76;100.00
64827;BME280;51265;53.972;12.286;2022-11-11T16:03:19;101996.75;;;9.83;100.00
64827;BME280;51265;53.972;12.286;2022-11-11T16:06:08;102004.34;;;9.71;100.00
64827;BME280;51265;53.972;12.286;2022-11-11T16:08:53;102022.50;;;9.72;100.00
64827;BME280;51265;53.972;12.286;2022-11-11T16:11:41;102018.56;;;9.63;100.00
64827;BME280;51265;53.972;12.286;2022-11-11T16:14:30;102024.69;;;9.70;100.00
64827;BME280;51265;53.972;12.286;2022-11-11T16:17:17;102020.03;;;9.70;100.00
64827;BME280;51265;53.972;12.286;2022-11-11T16:20:02;102023.00;;;9.69;100.00
64827;BME280;51265;53.972;12.286;2022-11-11T16:22:48;102026.84;;;9.68;100.00
64827;BME280;51265;53.972;12.286;2022-11-11T16:25:36;102027.38;;;9.65;100.00
64827;BME280;51265;53.972;12.286;2022-11-11T16:28:22;102029.34;;;9.69;100.00
64827;BME280;51265;53.972;12.286;2022-11-11T16:37:14;102038.78;;;9.52;100.00
64827;BME280;51265;53.972;12.286;2022-11-11T16:40:33;102042.63;;;9.51;100.00
64827;BME280;51265;53.972;12.286;2022-11-11T16:43:25;102042.94;;;9.54;100.00
64827;BME280;51265;53.972;12.286;2022-11-11T16:46:26;102038.81;;;9.57;100.00
64827;BME280;51265;53.972;12.286;2022-11-11T16:49:33;102036.75;;;9.42;100.00
64827;BME280;51265;53.972;12.286;2022-11-11T16:52:23;102041.78;;;9.50;100.00